createdAt,value
2019-02-23T00:00:37.501Z,11.73
2019-02-23T00:03:06.364Z,11.85
2019-02-23T00:05:35.126Z,11.18
2019-02-23T00:08:03.880Z,11.48
2019-02-23T00:10:32.641Z,10.93
2019-02-23T00:13:01.564Z,11.80
2019-02-23T00:17:42.185Z,11.70
2019-02-23T00:20:10.973Z,11.45
2019-02-23T00:22:39.745Z,11.20
2019-02-23T00:25:08.491Z,10.68
2019-02-23T00:27:37.249Z,10.40
2019-02-23T00:30:07.392Z,10.65
2019-02-23T00:32:36.245Z,10.38
2019-02-23T00:35:04.989Z,10.78
2019-02-23T00:37:33.757Z,10.78
2019-02-23T00:40:02.504Z,10.33
2019-02-23T00:42:31.289Z,10.98
2019-02-23T00:45:00.022Z,10.45
2019-02-23T00:47:28.794Z,11.35
2019-02-23T00:49:57.537Z,10.90
2019-02-23T00:52:26.310Z,11.18
2019-02-23T00:54:55.146Z,11.00
2019-02-23T00:57:23.882Z,11.38
2019-02-23T00:59:52.654Z,10.65
2019-02-23T01:02:21.393Z,10.90
2019-02-23T01:04:50.165Z,10.13
2019-02-23T01:07:18.903Z,10.60
2019-02-23T01:09:47.665Z,10.43
2019-02-23T01:12:16.674Z,10.93
2019-02-23T01:14:45.444Z,10.45
2019-02-23T01:17:14.188Z,10.70
2019-02-23T01:19:47.683Z,9.80
2019-02-23T01:22:13.449Z,10.20
2019-02-23T01:24:42.220Z,10.03
2019-02-23T01:27:10.953Z,10.28
2019-02-23T01:29:39.721Z,10.00
2019-02-23T01:32:08.458Z,9.73
2019-02-23T01:34:37.274Z,10.28
2019-02-23T01:37:06.033Z,10.15
2019-02-23T01:39:34.809Z,10.50
2019-02-23T01:42:03.574Z,10.32
2019-02-23T01:44:32.391Z,10.10
2019-02-23T01:47:01.232Z,10.20
2019-02-23T01:49:30.034Z,10.03
2019-02-23T01:51:58.891Z,10.70
2019-02-23T01:54:27.674Z,10.78
2019-02-23T01:56:56.438Z,10.70
2019-02-23T01:59:25.221Z,11.03
2019-02-23T02:01:54.037Z,12.03
2019-02-23T02:04:22.768Z,11.50
2019-02-23T02:06:51.614Z,12.00
2019-02-23T02:09:20.425Z,11.83
2019-02-23T02:11:49.297Z,12.73
2019-02-23T02:14:18.070Z,11.95
2019-02-23T02:16:46.833Z,12.27
2019-02-23T02:19:15.608Z,12.00
2019-02-23T02:21:44.713Z,13.25
2019-02-23T02:24:13.481Z,13.62
2019-02-23T02:26:42.290Z,13.70
2019-02-23T02:29:11.113Z,13.75
2019-02-23T02:31:39.861Z,13.50
2019-02-23T02:34:11.662Z,13.80
2019-02-23T02:36:40.493Z,14.05
2019-02-23T02:39:11.393Z,14.98
2019-02-23T02:41:40.122Z,14.68
2019-02-23T02:44:08.890Z,14.87
2019-02-23T02:46:37.644Z,14.55
2019-02-23T02:49:06.641Z,14.10
2019-02-23T02:51:35.381Z,16.10
2019-02-23T02:54:04.114Z,15.43
2019-02-23T02:56:32.889Z,15.95
2019-02-23T02:59:01.677Z,15.48
2019-02-23T03:01:30.477Z,16.48
2019-02-23T03:03:59.215Z,16.50
2019-02-23T03:06:27.997Z,15.28
2019-02-23T03:08:56.729Z,16.27
2019-02-23T03:11:25.534Z,17.48
2019-02-23T03:13:54.265Z,17.50
2019-02-23T03:16:23.033Z,17.85
2019-02-23T03:18:51.782Z,17.48
2019-02-23T03:21:20.538Z,18.25
2019-02-23T03:23:49.285Z,17.73
2019-02-23T03:26:18.053Z,18.27
2019-02-23T03:28:46.906Z,18.35
2019-02-23T03:31:15.750Z,18.60
2019-02-23T03:33:44.618Z,18.05
2019-02-23T03:36:13.357Z,18.60
2019-02-23T03:38:42.193Z,19.23
2019-02-23T03:41:10.938Z,18.47
2019-02-23T03:43:39.705Z,18.05
2019-02-23T03:46:08.516Z,18.77
2019-02-23T03:48:37.288Z,19.27
2019-02-23T03:51:06.022Z,18.75
2019-02-23T03:53:34.793Z,17.80
2019-02-23T03:56:03.774Z,17.57
2019-02-23T03:58:32.598Z,17.90
2019-02-23T04:01:01.334Z,18.50
2019-02-23T04:03:30.098Z,17.75
2019-02-23T04:05:58.842Z,18.92
2019-02-23T04:08:27.610Z,18.35
2019-02-23T04:10:56.347Z,17.98
2019-02-23T04:13:25.186Z,18.30
2019-02-23T04:15:54.025Z,17.90
2019-02-23T04:18:22.831Z,17.10
2019-02-23T04:21:01.242Z,17.42
2019-02-23T04:23:22.046Z,16.80
2019-02-23T04:25:50.910Z,17.20
2019-02-23T04:28:19.756Z,17.20
2019-02-23T04:30:48.578Z,15.67
2019-02-23T04:33:17.315Z,17.52
2019-02-23T04:35:46.626Z,16.90
2019-02-23T04:38:15.515Z,16.30
2019-02-23T04:40:44.278Z,16.42
2019-02-23T04:43:13.135Z,16.32
2019-02-23T04:45:41.921Z,16.00
2019-02-23T04:48:10.641Z,16.80
2019-02-23T04:50:39.489Z,15.60
2019-02-23T04:53:08.289Z,15.28
2019-02-23T04:55:37.033Z,15.08
2019-02-23T04:58:05.886Z,14.78
2019-02-23T05:00:34.617Z,14.63
2019-02-23T05:03:03.445Z,13.85
2019-02-23T05:05:32.306Z,14.13
2019-02-23T05:08:01.160Z,13.98
2019-02-23T05:10:29.897Z,13.70
2019-02-23T05:12:58.666Z,13.08
2019-02-23T05:15:27.402Z,13.22
2019-02-23T05:17:56.174Z,13.78
2019-02-23T05:20:24.918Z,13.30
2019-02-23T05:22:53.754Z,12.88
2019-02-23T05:25:22.494Z,12.95
2019-02-23T05:27:51.452Z,12.63
2019-02-23T05:30:20.173Z,13.22
2019-02-23T05:32:48.951Z,12.70
2019-02-23T05:35:18.225Z,12.33
2019-02-23T05:37:47.962Z,12.50
2019-02-23T05:40:16.721Z,11.85
2019-02-23T05:42:45.537Z,13.03
2019-02-23T05:45:14.365Z,12.70
2019-02-23T05:47:43.222Z,12.73
2019-02-23T05:50:12.082Z,12.03
2019-02-23T05:52:40.814Z,11.28
2019-02-23T05:55:09.589Z,11.12
2019-02-23T05:57:38.329Z,11.88
2019-02-23T06:00:10.338Z,10.98
2019-02-23T06:02:39.077Z,10.55
2019-02-23T06:05:08.349Z,11.08
2019-02-23T06:07:37.094Z,10.32
2019-02-23T06:10:08.665Z,9.78
2019-02-23T06:12:39.213Z,9.65
2019-02-23T06:15:10.960Z,9.93
2019-02-23T06:17:39.724Z,9.85
2019-02-23T06:20:09.337Z,9.20
2019-02-23T06:22:38.110Z,9.55
2019-02-23T06:25:08.250Z,9.35
2019-02-23T06:27:37.069Z,9.20
2019-02-23T06:30:09.205Z,8.88
2019-02-23T06:32:37.971Z,8.93
2019-02-23T06:35:08.837Z,8.85
2019-02-23T06:37:37.593Z,9.10
2019-02-23T06:40:10.925Z,8.83
2019-02-23T06:42:39.695Z,10.08
2019-02-23T06:45:11.129Z,9.05
2019-02-23T06:47:39.968Z,8.53
2019-02-23T06:50:08.998Z,8.50
2019-02-23T06:52:37.780Z,9.15
2019-02-23T06:55:07.639Z,9.20
2019-02-23T06:57:36.413Z,9.65
2019-02-23T07:00:08.091Z,8.65
2019-02-23T07:02:36.916Z,8.50
2019-02-23T07:05:07.867Z,8.88
2019-02-23T07:07:37.751Z,9.23
2019-02-23T07:10:14.350Z,8.63
2019-02-23T07:12:43.550Z,9.13
2019-02-23T07:15:13.154Z,8.83
2019-02-23T07:17:42.626Z,8.98
2019-02-23T07:20:13.632Z,9.10
2019-02-23T07:22:42.487Z,8.68
2019-02-23T07:25:11.443Z,7.92
2019-02-23T07:27:40.646Z,8.18
2019-02-23T07:30:14.278Z,7.92
2019-02-23T07:32:43.449Z,8.23
2019-02-23T07:35:12.548Z,7.97
2019-02-23T07:37:42.556Z,8.00
2019-02-23T07:40:14.052Z,25.75
2019-02-23T07:42:47.068Z,8.03
2019-02-23T07:45:16.277Z,8.23
2019-02-23T07:47:45.551Z,7.28
2019-02-23T07:50:15.728Z,8.20
2019-02-23T07:52:47.954Z,7.30
2019-02-23T07:55:17.225Z,6.62
2019-02-23T07:57:46.304Z,7.40
2019-02-23T08:00:15.228Z,7.60
2019-02-23T08:02:43.980Z,6.90
2019-02-23T08:05:12.825Z,7.35
2019-02-23T08:07:41.653Z,7.20
2019-02-23T08:10:11.956Z,7.67
2019-02-23T08:12:40.837Z,7.60
2019-02-23T08:15:11.137Z,6.85
2019-02-23T08:17:40.068Z,7.47
2019-02-23T08:20:11.066Z,7.00
2019-02-23T08:22:39.892Z,7.45
2019-02-23T08:25:10.619Z,7.30
2019-02-23T08:27:39.378Z,7.00
2019-02-23T08:30:13.801Z,7.20
2019-02-23T08:32:42.622Z,7.17
2019-02-23T08:35:11.349Z,7.12
2019-02-23T08:37:40.116Z,6.75
2019-02-23T08:40:28.183Z,6.95
2019-02-23T08:42:56.961Z,6.80
2019-02-23T08:45:25.765Z,6.22
2019-02-23T08:47:56.520Z,6.33
2019-02-23T08:50:26.556Z,5.80
2019-02-23T08:52:56.499Z,5.47
2019-02-23T08:55:25.486Z,5.42
2019-02-23T08:57:54.257Z,5.60
2019-02-23T09:00:24.358Z,5.03
2019-02-23T09:02:53.813Z,4.75
2019-02-23T09:05:22.587Z,4.97
2019-02-23T09:07:51.385Z,5.10
2019-02-23T09:10:20.520Z,4.30
2019-02-23T09:12:49.285Z,4.80
2019-02-23T09:15:18.060Z,4.12
2019-02-23T09:17:46.796Z,4.40
2019-02-23T09:20:15.537Z,4.28
2019-02-23T09:22:44.268Z,4.45
2019-02-23T09:25:13.109Z,5.40
2019-02-23T09:27:41.950Z,4.17
2019-02-23T09:30:13.057Z,4.15
2019-02-23T09:32:41.905Z,4.17
2019-02-23T09:35:10.705Z,4.58
2019-02-23T09:37:39.461Z,4.62
2019-02-23T09:40:11.366Z,4.05
2019-02-23T09:42:40.316Z,4.40
2019-02-23T09:45:11.655Z,4.37
2019-02-23T09:47:40.535Z,4.67
2019-02-23T09:50:09.278Z,4.50
2019-02-23T09:52:39.362Z,4.67
2019-02-23T09:55:09.201Z,4.83
2019-02-23T09:57:38.182Z,4.50
2019-02-23T10:00:14.360Z,4.60
2019-02-23T10:02:44.907Z,5.08
2019-02-23T10:05:13.850Z,5.20
2019-02-23T10:07:42.742Z,5.25
2019-02-23T10:10:11.812Z,5.10
2019-02-23T10:12:43.840Z,4.97
2019-02-23T10:15:13.974Z,5.00
2019-02-23T10:17:42.796Z,4.95
2019-02-23T10:20:12.919Z,4.85
2019-02-23T10:22:42.748Z,4.60
2019-02-23T10:25:11.581Z,4.60
2019-02-23T10:27:40.462Z,4.20
2019-02-23T10:30:12.249Z,5.22
2019-02-23T10:32:40.982Z,4.97
2019-02-23T10:35:12.567Z,4.85
2019-02-23T10:37:41.371Z,5.00
2019-02-23T10:40:11.741Z,5.50
2019-02-23T10:42:41.243Z,5.58
2019-02-23T10:45:11.837Z,4.70
2019-02-23T10:47:40.661Z,5.33
2019-02-23T10:50:12.997Z,4.60
2019-02-23T10:52:41.817Z,5.22
2019-02-23T10:55:12.381Z,4.83
2019-02-23T10:57:41.185Z,5.30
2019-02-23T11:00:22.469Z,5.50
2019-02-23T11:02:51.536Z,5.90
2019-02-23T11:05:20.820Z,6.10
2019-02-23T11:07:49.625Z,6.78
2019-02-23T11:10:19.341Z,6.87
2019-02-23T11:12:48.191Z,6.70
2019-02-23T11:15:19.429Z,6.85
2019-02-23T11:17:48.279Z,6.45
2019-02-23T11:20:17.513Z,6.60
2019-02-23T11:22:46.269Z,6.75
2019-02-23T11:25:14.994Z,6.70
2019-02-23T11:27:44.061Z,6.80
2019-02-23T11:30:16.653Z,6.87
2019-02-23T11:32:45.491Z,6.22
2019-02-23T11:35:17.384Z,6.58
2019-02-23T11:37:47.970Z,6.90
2019-02-23T11:40:18.321Z,6.05
2019-02-23T11:42:47.291Z,6.60
2019-02-23T11:45:16.122Z,6.50
2019-02-23T11:47:44.824Z,6.60
2019-02-23T11:50:13.958Z,6.42
2019-02-23T11:52:42.718Z,5.97
2019-02-23T11:55:11.624Z,5.90
2019-02-23T11:57:40.407Z,5.60
2019-02-23T12:00:11.328Z,6.37
2019-02-23T12:02:51.463Z,6.05
2019-02-23T12:05:11.229Z,6.08
2019-02-23T12:07:40.033Z,5.78
2019-02-23T12:10:11.785Z,6.00
2019-02-23T12:12:40.508Z,5.90
2019-02-23T12:15:09.574Z,6.25
2019-02-23T12:17:38.297Z,6.45
2019-02-23T12:20:09.347Z,6.75
2019-02-23T12:22:38.427Z,6.73
2019-02-23T12:25:08.085Z,6.45
2019-02-23T12:27:36.887Z,6.35
2019-02-23T12:30:10.987Z,6.20
2019-02-23T12:32:39.781Z,6.20
2019-02-23T12:35:10.342Z,6.42
2019-02-23T12:37:39.158Z,6.47
2019-02-23T12:40:09.987Z,6.30
2019-02-23T12:42:38.748Z,6.00
2019-02-23T12:45:12.329Z,6.20
2019-02-23T12:47:41.541Z,6.55
2019-02-23T12:50:11.769Z,6.62
2019-02-23T12:52:40.524Z,6.60
2019-02-23T12:55:10.853Z,6.17
2019-02-23T12:57:39.677Z,6.47
2019-02-23T13:00:16.551Z,6.53
2019-02-23T13:02:45.306Z,7.00
2019-02-23T13:05:14.039Z,6.62
2019-02-23T13:07:42.862Z,6.33
2019-02-23T13:10:12.892Z,6.43
2019-02-23T13:12:44.581Z,5.92
2019-02-23T13:15:22.230Z,6.90
2019-02-23T13:18:30.141Z,6.23
2019-02-23T13:21:07.503Z,6.20
2019-02-23T13:23:54.429Z,5.83
2019-02-23T13:26:44.301Z,5.30
2019-02-23T13:29:40.201Z,5.78
2019-02-23T13:32:32.029Z,5.40
2019-02-23T13:35:21.861Z,5.30
2019-02-23T13:38:02.243Z,5.60
2019-02-23T13:40:51.706Z,4.97
2019-02-23T13:43:29.414Z,4.47
2019-02-23T13:46:15.790Z,4.80
2019-02-23T13:48:50.070Z,4.60
2019-02-23T13:51:27.497Z,4.50
2019-02-23T13:54:20.244Z,4.62
2019-02-23T13:56:54.853Z,4.50
2019-02-23T13:59:38.237Z,4.70
2019-02-23T14:02:15.626Z,4.20
2019-02-23T14:04:53.396Z,4.40
2019-02-23T14:07:30.906Z,4.53
2019-02-23T14:10:21.889Z,4.73
2019-02-23T14:12:56.443Z,4.87
2019-02-23T14:16:01.337Z,4.80
2019-02-23T14:18:53.565Z,5.70
2019-02-23T14:21:33.313Z,4.78
2019-02-23T14:24:49.472Z,4.55
2019-02-23T14:27:27.569Z,4.50
2019-02-23T14:30:14.205Z,4.47
2019-02-23T14:33:00.322Z,4.92
2019-02-23T14:35:40.917Z,4.22
2019-02-23T14:38:42.437Z,3.77
2019-02-23T14:41:17.235Z,3.80
2019-02-23T14:43:57.846Z,3.80
2019-02-23T14:46:38.521Z,3.70
2019-02-23T14:49:30.860Z,3.53
2019-02-23T14:52:08.296Z,3.73
2019-02-23T14:54:45.785Z,3.40
2019-02-23T14:57:47.605Z,3.87
2019-02-23T15:00:34.292Z,3.70
2019-02-23T15:03:14.701Z,3.90
2019-02-23T15:05:58.241Z,3.50
2019-02-23T15:08:32.628Z,3.80
2019-02-23T15:11:10.061Z,3.80
2019-02-23T15:14:04.214Z,3.45
2019-02-23T15:16:58.267Z,3.40
2019-02-23T15:19:35.864Z,3.50
2019-02-23T15:22:40.529Z,3.60
2019-02-23T15:25:43.595Z,3.52
2019-02-23T15:28:37.043Z,3.42
2019-02-23T15:31:00.269Z,3.62
2019-02-23T15:33:49.702Z,3.50
2019-02-23T15:36:21.466Z,3.72
2019-02-23T15:39:01.782Z,4.00
2019-02-23T15:41:33.509Z,3.60
2019-02-23T15:44:36.655Z,3.90
2019-02-23T15:47:08.435Z,3.47
2019-02-23T15:49:37.166Z,3.60
2019-02-23T15:52:06.113Z,3.37
2019-02-23T15:54:34.906Z,3.75
2019-02-23T15:57:03.746Z,6.40
2019-02-23T15:59:33.326Z,3.20
2019-02-23T16:02:02.074Z,3.20
2019-02-23T16:04:31.317Z,2.90
2019-02-23T16:07:00.230Z,3.08
2019-02-23T16:09:28.961Z,3.10
2019-02-23T16:11:57.806Z,3.30
2019-02-23T16:14:28.383Z,3.08
2019-02-23T16:16:58.654Z,3.00
2019-02-23T16:19:27.530Z,2.65
2019-02-23T16:22:19.907Z,2.98
2019-02-23T16:24:48.642Z,3.07
2019-02-23T16:27:17.374Z,3.10
2019-02-23T16:29:46.197Z,3.00
2019-02-23T16:32:14.965Z,3.10
2019-02-23T16:34:43.773Z,2.98
2019-02-23T16:37:12.502Z,3.00
2019-02-23T16:39:41.263Z,2.70
2019-02-23T16:42:10.005Z,2.83
2019-02-23T16:44:38.758Z,2.80
2019-02-23T16:47:07.589Z,2.70
2019-02-23T16:49:36.345Z,2.50
2019-02-23T16:52:05.169Z,2.45
2019-02-23T16:54:33.906Z,2.50
2019-02-23T16:57:02.745Z,2.40
2019-02-23T16:59:31.481Z,2.22
2019-02-23T17:02:00.252Z,2.37
2019-02-23T17:04:28.982Z,2.30
2019-02-23T17:06:57.814Z,2.50
2019-02-23T17:09:26.581Z,2.17
2019-02-23T17:11:57.037Z,2.40
2019-02-23T17:14:25.840Z,2.60
2019-02-23T17:16:54.681Z,2.20
2019-02-23T17:19:26.591Z,2.22
2019-02-23T17:21:55.333Z,2.80
2019-02-23T17:24:24.166Z,2.72
2019-02-23T17:26:53.187Z,2.47
2019-02-23T17:29:22.106Z,3.30
2019-02-23T17:31:50.849Z,3.40
2019-02-23T17:34:19.719Z,3.20
2019-02-23T17:36:48.445Z,2.40
2019-02-23T17:39:17.285Z,3.00
2019-02-23T17:41:46.084Z,2.50
2019-02-23T17:44:14.849Z,2.90
2019-02-23T17:46:43.586Z,2.75
2019-02-23T17:49:12.345Z,2.67
2019-02-23T17:51:41.082Z,3.08
2019-02-23T17:54:09.837Z,3.10
2019-02-23T17:56:38.569Z,2.60
2019-02-23T17:59:07.333Z,2.30
2019-02-23T18:01:36.142Z,2.60
2019-02-23T18:04:04.905Z,2.60
2019-02-23T18:06:33.640Z,2.40
2019-02-23T18:09:02.505Z,2.27
2019-02-23T18:11:31.269Z,2.65
2019-02-23T18:14:00.077Z,2.55
2019-02-23T18:16:28.837Z,2.83
2019-02-23T18:18:57.714Z,2.70
2019-02-23T18:21:26.482Z,2.60
2019-02-23T18:23:55.373Z,2.52
2019-02-23T18:26:24.830Z,2.70
2019-02-23T18:28:53.629Z,2.90
2019-02-23T18:31:22.393Z,2.80
2019-02-23T18:33:51.169Z,3.00
2019-02-23T18:36:19.930Z,2.30
2019-02-23T18:38:48.714Z,2.40
2019-02-23T18:41:17.562Z,2.77
2019-02-23T18:43:46.289Z,2.80
2019-02-23T18:46:15.055Z,2.50
2019-02-23T18:48:43.817Z,2.85
2019-02-23T18:51:12.582Z,2.60
2019-02-23T18:53:41.333Z,3.22
2019-02-23T18:56:10.118Z,2.72
2019-02-23T18:58:38.888Z,2.62
2019-02-23T19:01:07.906Z,3.08
2019-02-23T19:03:37.273Z,2.90
2019-02-23T19:06:06.664Z,3.05
2019-02-23T19:08:35.527Z,2.90
2019-02-23T19:11:04.370Z,3.25
2019-02-23T19:13:33.308Z,3.12
2019-02-23T19:16:02.246Z,3.25
2019-02-23T19:18:31.170Z,3.12
2019-02-23T19:20:59.986Z,2.90
2019-02-23T19:23:28.795Z,3.10
2019-02-23T19:25:57.673Z,2.72
2019-02-23T19:28:26.473Z,3.60
2019-02-23T19:30:55.350Z,3.10
2019-02-23T19:33:24.342Z,3.05
2019-02-23T19:35:53.273Z,3.20
2019-02-23T19:38:22.112Z,3.20
2019-02-23T19:40:51.065Z,3.30
2019-02-23T19:43:20.011Z,3.22
2019-02-23T19:45:48.846Z,3.47
2019-02-23T19:48:17.668Z,3.22
2019-02-23T19:50:49.775Z,3.27
2019-02-23T19:53:18.666Z,2.80
2019-02-23T19:55:47.555Z,3.10
2019-02-23T19:58:16.344Z,3.20
2019-02-23T20:00:45.240Z,3.30
2019-02-23T20:03:14.288Z,3.12
2019-02-23T20:05:43.177Z,3.25
2019-02-23T20:08:12.008Z,2.60
2019-02-23T20:10:40.883Z,2.92
2019-02-23T20:13:09.749Z,3.20
2019-02-23T20:15:38.614Z,3.12
2019-02-23T20:18:07.505Z,2.83
2019-02-23T20:20:36.531Z,3.10
2019-02-23T20:23:05.415Z,3.33
2019-02-23T20:25:34.236Z,3.20
2019-02-23T20:28:03.153Z,3.17
2019-02-23T20:30:32.069Z,5.28
2019-02-23T20:33:01.048Z,4.10
2019-02-23T20:35:29.901Z,3.40
2019-02-23T20:37:58.964Z,2.90
2019-02-23T20:40:28.021Z,3.22
2019-02-23T20:42:56.775Z,3.35
2019-02-23T20:45:25.498Z,3.10
2019-02-23T20:47:54.274Z,3.45
2019-02-23T20:50:22.982Z,3.17
2019-02-23T20:52:51.737Z,3.35
2019-02-23T20:55:20.465Z,3.12
2019-02-23T20:57:49.227Z,3.00
2019-02-23T21:00:19.234Z,3.10
2019-02-23T21:02:47.957Z,3.20
2019-02-23T21:05:16.711Z,3.00
2019-02-23T21:07:45.438Z,3.33
2019-02-23T21:10:14.271Z,2.87
2019-02-23T21:12:42.993Z,3.00
2019-02-23T21:15:12.166Z,3.22
2019-02-23T21:17:40.974Z,3.02
2019-02-23T21:20:10.942Z,3.15
2019-02-23T21:22:39.661Z,3.12
2019-02-23T21:25:09.225Z,2.95
2019-02-23T21:27:37.957Z,3.37
2019-02-23T21:30:11.001Z,3.45
2019-02-23T21:32:39.725Z,3.10
2019-02-23T21:35:08.989Z,3.02
2019-02-23T21:37:37.763Z,2.70
2019-02-23T21:40:08.655Z,3.47
2019-02-23T21:42:37.417Z,3.50
2019-02-23T21:45:08.146Z,3.05
2019-02-23T21:47:36.917Z,3.40
2019-02-23T21:50:07.745Z,2.90
2019-02-23T21:52:36.509Z,3.00
2019-02-23T21:55:05.346Z,2.95
2019-02-23T21:57:34.138Z,3.17
2019-02-23T22:00:02.946Z,3.33
2019-02-23T22:02:31.721Z,2.70
2019-02-23T22:05:00.462Z,2.87
2019-02-23T22:07:29.206Z,2.80
2019-02-23T22:09:57.970Z,3.25
2019-02-23T22:12:26.719Z,3.15
2019-02-23T22:14:55.457Z,3.20
2019-02-23T22:17:24.221Z,3.10
2019-02-23T22:19:52.950Z,3.23
2019-02-23T22:22:21.714Z,3.27
2019-02-23T22:24:50.500Z,3.10
2019-02-23T22:27:19.300Z,3.15
2019-02-23T22:29:48.122Z,2.90
2019-02-23T22:32:16.857Z,3.30
2019-02-23T22:34:45.699Z,3.47
2019-02-23T22:37:14.436Z,3.10
2019-02-23T22:39:43.194Z,3.27
2019-02-23T22:42:11.969Z,3.20
2019-02-23T22:44:40.732Z,3.10
2019-02-23T22:47:09.541Z,3.10
2019-02-23T22:49:39.041Z,3.30
2019-02-23T22:52:07.829Z,3.15
2019-02-23T22:54:36.595Z,3.33
2019-02-23T22:57:05.409Z,2.90
2019-02-23T22:59:34.176Z,3.00
2019-02-23T23:02:02.977Z,2.75
2019-02-23T23:04:31.737Z,3.20
2019-02-23T23:07:00.474Z,3.17
2019-02-23T23:09:29.241Z,2.83
2019-02-23T23:11:58.029Z,2.87
2019-02-23T23:14:26.790Z,2.90
2019-02-23T23:16:55.561Z,2.85
2019-02-23T23:19:24.294Z,3.15
2019-02-23T23:21:53.057Z,3.10
2019-02-23T23:24:21.793Z,3.12
2019-02-23T23:26:50.562Z,2.77
2019-02-23T23:29:19.366Z,2.95
2019-02-23T23:31:48.128Z,3.37
2019-02-23T23:34:16.922Z,3.00
2019-02-23T23:36:45.845Z,3.12
2019-02-23T23:39:14.582Z,3.40
2019-02-23T23:41:43.420Z,3.10
2019-02-23T23:44:12.173Z,2.87
2019-02-23T23:46:40.993Z,3.22
2019-02-23T23:49:09.736Z,2.95
2019-02-23T23:51:38.497Z,3.00
2019-02-23T23:54:07.233Z,2.80
2019-02-23T23:56:36.045Z,2.95
2019-02-23T23:59:04.810Z,3.13
